Time;durP1;ratioP1;P1;durP2;ratioP2;P2;SDS_P1;SDS_P2;PMS_P1;PMS_P2;Temp;Humidity;BMP_temperature;BMP_pressure;BME280_temperature;BME280_humidity;BME280_pressure;Samples;Min_cycle;Max_cycle;Signal;HPM_P1;HPM_P2
2022/01/27 00:05:20;;;;;;;46.87;28.90;;;;;;;;;;4995194;28;20280;-61
2022/01/27 00:07:58;;;;;;;46.97;29.00;;;;;;;;;;4980012;28;20681;-61
2022/01/27 00:10:43;;;;;;;45.47;28.33;;;;;;;;;;4995919;28;20207;-61
2022/01/27 00:13:13;;;;;;;51.47;30.10;;;;;;;;;;4980461;28;20229;-62
2022/01/27 00:15:39;;;;;;;45.73;27.63;;;;;;;;;;4996153;28;20213;-61
2022/01/27 00:18:12;;;;;;;44.43;27.20;;;;;;;;;;4979566;28;20704;-62
2022/01/27 00:20:37;;;;;;;43.93;26.43;;;;;;;;;;4976501;28;20664;-61
2022/01/27 00:23:02;;;;;;;47.57;27.17;;;;;;;;;;4991684;28;20229;-61
2022/01/27 00:25:28;;;;;;;46.37;27.90;;;;;;;;;;4997501;28;20208;-61
2022/01/27 00:27:53;;;;;;;42.33;25.00;;;;;;;;;;5015620;28;20212;-61
2022/01/27 00:30:19;;;;;;;42.80;24.57;;;;;;;;;;5014963;28;20208;-61
2022/01/27 00:32:44;;;;;;;45.20;26.73;;;;;;;;;;5014642;28;20223;-61
2022/01/27 00:35:09;;;;;;;41.73;25.07;;;;;;;;;;5015010;28;20570;-61
2022/01/27 00:37:34;;;;;;;41.70;24.57;;;;;;;;;;5015344;28;20230;-61
2022/01/27 00:40:00;;;;;;;39.33;24.00;;;;;;;;;;4997341;28;20303;-61
2022/01/27 00:42:26;;;;;;;38.73;23.60;;;;;;;;;;5014886;28;20204;-61
2022/01/27 00:44:52;;;;;;;39.63;23.77;;;;;;;;;;5015240;28;20221;-61
2022/01/27 00:47:17;;;;;;;38.90;22.93;;;;;;;;;;5013811;28;20239;-62
2022/01/27 00:49:43;;;;;;;39.10;23.30;;;;;;;;;;5015142;28;20221;-61
2022/01/27 00:52:13;;;;;;;38.83;21.97;;;;;;;;;;5014779;28;20239;-61
2022/01/27 00:54:39;;;;;;;31.53;20.90;;;;;;;;;;5014184;28;20251;-61
2022/01/27 00:57:12;;;;;;;35.33;21.67;;;;;;;;;;5014639;28;20212;-61
2022/01/27 00:59:58;;;;;;;37.33;21.87;;;;;;;;;;5013143;28;20247;-61
2022/01/27 01:02:43;;;;;;;33.83;20.33;;;;;;;;;;4994032;28;20680;-61
2022/01/27 01:05:43;;;;;;;33.83;21.40;;;;;;;;;;4994795;28;20229;-61
2022/01/27 01:09:43;;;;;;;36.50;20.53;;;;;;;;;;4993709;28;20209;-61
2022/01/27 01:16:18;;;;;;;35.70;20.57;;;;;;;;;;4993134;28;20303;-61
2022/01/27 01:18:55;;;;;;;38.00;21.33;;;;;;;;;;4975682;28;20296;-62
2022/01/27 01:21:37;;;;;;;38.97;23.07;;;;;;;;;;4975116;28;20271;-61
2022/01/27 01:29:54;;;;;;;38.70;23.53;;;;;;;;;;5013095;28;20687;-61
2022/01/27 01:32:38;;;;;;;37.57;23.20;;;;;;;;;;5013830;28;20216;-61
2022/01/27 01:35:07;;;;;;;36.97;22.47;;;;;;;;;;5013743;28;20291;-62
2022/01/27 01:37:37;;;;;;;38.23;23.80;;;;;;;;;;5013733;28;20617;-61
2022/01/27 01:40:04;;;;;;;36.53;22.80;;;;;;;;;;4996835;28;20285;-61
2022/01/27 01:42:31;;;;;;;39.23;23.10;;;;;;;;;;5014299;28;20200;-61
2022/01/27 01:45:00;;;;;;;37.43;23.77;;;;;;;;;;4995659;28;20223;-61
2022/01/27 01:47:26;;;;;;;40.20;23.13;;;;;;;;;;5013681;28;20219;-61
2022/01/27 01:49:51;;;;;;;37.63;23.20;;;;;;;;;;5013025;28;20205;-61
2022/01/27 01:52:16;;;;;;;35.63;23.17;;;;;;;;;;5013702;28;20223;-61
2022/01/27 01:54:41;;;;;;;38.97;23.40;;;;;;;;;;5013875;28;20228;-61
2022/01/27 01:57:07;;;;;;;38.43;22.80;;;;;;;;;;5012968;28;20213;-61
2022/01/27 01:59:32;;;;;;;37.43;23.20;;;;;;;;;;5012795;28;20271;-61
2022/01/27 02:01:58;;;;;;;37.80;22.10;;;;;;;;;;4960601;28;20205;-62
2022/01/27 02:04:23;;;;;;;37.23;23.27;;;;;;;;;;4986205;28;20230;-62
2022/01/27 02:06:53;;;;;;;39.93;22.87;;;;;;;;;;4983446;28;20218;-61
2022/01/27 02:19:58;;;;;;;37.50;22.20;;;;;;;;;;4978287;28;20224;-61
2022/01/27 02:22:23;;;;;;;38.97;22.80;;;;;;;;;;4996358;28;20216;-61
2022/01/27 02:24:50;;;;;;;35.17;22.53;;;;;;;;;;4994842;28;20225;-60
2022/01/27 02:27:16;;;;;;;34.23;21.17;;;;;;;;;;5013187;28;20347;-61
2022/01/27 02:29:41;;;;;;;37.67;22.93;;;;;;;;;;5013311;28;20299;-60
2022/01/27 02:32:06;;;;;;;37.10;22.67;;;;;;;;;;5012140;28;20217;-61
2022/01/27 02:34:32;;;;;;;35.23;22.53;;;;;;;;;;5013045;28;20215;-61
2022/01/27 02:36:57;;;;;;;37.73;22.77;;;;;;;;;;4995781;28;20220;-61
2022/01/27 02:39:22;;;;;;;38.00;23.20;;;;;;;;;;5012084;28;20573;-62
2022/01/27 02:41:48;;;;;;;41.50;23.33;;;;;;;;;;5013376;28;20571;-61
2022/01/27 02:44:21;;;;;;;35.50;21.83;;;;;;;;;;5012755;28;20235;-61
2022/01/27 02:46:46;;;;;;;37.83;21.97;;;;;;;;;;5012312;28;20672;-61
2022/01/27 02:49:11;;;;;;;37.20;23.30;;;;;;;;;;4995058;28;20225;-61
2022/01/27 02:51:36;;;;;;;37.10;21.90;;;;;;;;;;4995563;28;20682;-61
2022/01/27 02:54:02;;;;;;;40.67;22.30;;;;;;;;;;5011829;28;20212;-62
2022/01/27 02:56:27;;;;;;;39.90;22.20;;;;;;;;;;5012928;28;20218;-61
2022/01/27 02:58:52;;;;;;;33.60;22.10;;;;;;;;;;5012880;28;20216;-61
2022/01/27 03:01:19;;;;;;;35.53;21.93;;;;;;;;;;4996124;28;20227;-61
2022/01/27 03:03:44;;;;;;;38.93;22.97;;;;;;;;;;4975914;28;20256;-61
2022/01/27 03:06:09;;;;;;;36.17;22.20;;;;;;;;;;4992574;28;20245;-62
2022/01/27 03:08:35;;;;;;;36.27;22.50;;;;;;;;;;4975068;28;20209;-61
2022/01/27 03:11:02;;;;;;;37.37;21.77;;;;;;;;;;4993055;28;20217;-61
2022/01/27 03:13:28;;;;;;;33.63;21.27;;;;;;;;;;4967842;28;20217;-61
2022/01/27 03:15:53;;;;;;;38.37;20.97;;;;;;;;;;4991739;28;20696;-61
2022/01/27 03:18:19;;;;;;;38.87;22.00;;;;;;;;;;4974606;28;20241;-62
2022/01/27 03:20:44;;;;;;;38.37;22.13;;;;;;;;;;4973377;28;20712;-61
2022/01/27 03:23:10;;;;;;;35.17;20.97;;;;;;;;;;4969167;28;20233;-61
2022/01/27 03:25:35;;;;;;;35.77;21.70;;;;;;;;;;4993452;28;20217;-61
2022/01/27 03:28:00;;;;;;;37.07;22.77;;;;;;;;;;4992550;28;20351;-62
2022/01/27 03:30:26;;;;;;;36.17;22.50;;;;;;;;;;4992386;28;20303;-61
2022/01/27 03:32:51;;;;;;;36.33;22.53;;;;;;;;;;4992882;28;20217;-61
2022/01/27 03:35:16;;;;;;;34.70;21.90;;;;;;;;;;4991751;28;20221;-61
2022/01/27 03:37:41;;;;;;;39.60;21.47;;;;;;;;;;4992919;28;20677;-61
2022/01/27 03:40:07;;;;;;;38.23;22.23;;;;;;;;;;4992617;28;20241;-61
2022/01/27 03:42:33;;;;;;;37.50;21.27;;;;;;;;;;4992081;28;20213;-61
2022/01/27 03:44:58;;;;;;;34.63;21.33;;;;;;;;;;4991735;28;20237;-61
2022/01/27 03:47:23;;;;;;;35.93;21.70;;;;;;;;;;4992358;28;20228;-62
2022/01/27 03:49:48;;;;;;;39.33;20.93;;;;;;;;;;4992210;28;20223;-61
2022/01/27 03:52:14;;;;;;;36.40;21.97;;;;;;;;;;4992251;28;20303;-61
2022/01/27 03:54:39;;;;;;;36.43;21.90;;;;;;;;;;4992954;28;20220;-61
2022/01/27 03:57:04;;;;;;;36.73;21.97;;;;;;;;;;4991594;28;20217;-61
2022/01/27 03:59:30;;;;;;;37.43;23.87;;;;;;;;;;4992139;28;20209;-61
2022/01/27 04:01:55;;;;;;;37.17;21.27;;;;;;;;;;4972014;28;20222;-61
2022/01/27 04:04:20;;;;;;;36.53;21.77;;;;;;;;;;4970873;28;20233;-62
2022/01/27 04:06:50;;;;;;;34.93;22.67;;;;;;;;;;4973231;28;20221;-61
2022/01/27 04:09:15;;;;;;;39.27;22.17;;;;;;;;;;4971830;28;20353;-61
2022/01/27 04:11:40;;;;;;;35.20;21.93;;;;;;;;;;4972404;28;20691;-61
2022/01/27 04:14:06;;;;;;;35.57;22.07;;;;;;;;;;4972904;28;20218;-61
2022/01/27 04:16:31;;;;;;;34.33;21.53;;;;;;;;;;4969805;28;20207;-61
2022/01/27 04:18:56;;;;;;;36.43;22.30;;;;;;;;;;4953040;28;20297;-61
2022/01/27 04:21:21;;;;;;;35.83;21.63;;;;;;;;;;4953411;28;20682;-61
2022/01/27 04:23:48;;;;;;;35.90;21.00;;;;;;;;;;4979715;28;20248;-61
2022/01/27 04:26:16;;;;;;;32.97;20.13;;;;;;;;;;4990236;28;20233;-61
2022/01/27 04:28:43;;;;;;;34.20;21.57;;;;;;;;;;4992982;28;20689;-61
2022/01/27 04:31:10;;;;;;;34.20;20.83;;;;;;;;;;4995640;28;20221;-61
2022/01/27 04:33:37;;;;;;;34.73;21.27;;;;;;;;;;4995262;28;20243;-61
2022/01/27 04:36:08;;;;;;;36.97;20.87;;;;;;;;;;4995467;28;20750;-62
2022/01/27 04:38:41;;;;;;;32.77;20.07;;;;;;;;;;4995086;28;20216;-61
2022/01/27 04:41:15;;;;;;;31.90;20.23;;;;;;;;;;4995373;28;20241;-62
2022/01/27 04:43:49;;;;;;;36.57;21.13;;;;;;;;;;4995723;28;20241;-61
2022/01/27 04:46:24;;;;;;;34.67;20.67;;;;;;;;;;4994652;28;20231;-61
2022/01/27 04:48:54;;;;;;;32.83;20.90;;;;;;;;;;4995824;28;20215;-62
2022/01/27 04:51:22;;;;;;;34.20;20.33;;;;;;;;;;4995027;28;20248;-61
2022/01/27 04:54:00;;;;;;;32.60;19.57;;;;;;;;;;4994693;28;20221;-61
2022/01/27 04:56:28;;;;;;;29.30;18.53;;;;;;;;;;4995508;28;20221;-61
2022/01/27 04:59:01;;;;;;;35.00;21.00;;;;;;;;;;4995458;28;20213;-61
2022/01/27 05:01:33;;;;;;;35.23;19.90;;;;;;;;;;4978276;28;20280;-61
2022/01/27 05:04:04;;;;;;;33.67;19.60;;;;;;;;;;4975644;28;20712;-61
2022/01/27 05:06:29;;;;;;;30.97;18.77;;;;;;;;;;4975788;28;20209;-62
2022/01/27 05:08:55;;;;;;;35.40;20.00;;;;;;;;;;4975089;28;20570;-61
2022/01/27 05:11:27;;;;;;;33.03;18.93;;;;;;;;;;4974701;28;20214;-61
2022/01/27 05:13:58;;;;;;;34.07;19.50;;;;;;;;;;4974788;28;20605;-61
2022/01/27 05:16:23;;;;;;;32.83;18.53;;;;;;;;;;4973335;28;20676;-61
2022/01/27 05:18:48;;;;;;;34.10;20.23;;;;;;;;;;4955215;29;20725;-61
2022/01/27 05:21:14;;;;;;;35.67;18.50;;;;;;;;;;4955038;28;20221;-61
2022/01/27 05:23:39;;;;;;;32.10;19.03;;;;;;;;;;4990635;28;20367;-61
2022/01/27 05:26:04;;;;;;;33.43;18.73;;;;;;;;;;5014136;28;20679;-61
2022/01/27 05:28:29;;;;;;;36.77;19.53;;;;;;;;;;5013538;28;20534;-60
2022/01/27 05:30:54;;;;;;;34.50;19.17;;;;;;;;;;5014384;28;20219;-60
2022/01/27 05:33:20;;;;;;;31.80;18.07;;;;;;;;;;5013776;28;20302;-60
2022/01/27 05:35:46;;;;;;;31.83;18.23;;;;;;;;;;5013568;28;20243;-60
2022/01/27 05:38:12;;;;;;;33.00;18.67;;;;;;;;;;5013716;28;20215;-60
2022/01/27 05:40:37;;;;;;;33.43;17.43;;;;;;;;;;5013242;28;20216;-60
2022/01/27 05:43:02;;;;;;;32.60;17.70;;;;;;;;;;5012892;28;20694;-61
2022/01/27 05:45:28;;;;;;;30.13;16.90;;;;;;;;;;5013976;28;20240;-60
2022/01/27 05:47:53;;;;;;;34.47;18.43;;;;;;;;;;5014307;28;20224;-60
2022/01/27 05:50:18;;;;;;;29.07;17.63;;;;;;;;;;5012621;28;20628;-60
2022/01/27 05:52:43;;;;;;;34.20;18.50;;;;;;;;;;5013997;28;20216;-60
2022/01/27 05:55:09;;;;;;;32.13;18.13;;;;;;;;;;5013380;28;20212;-60
2022/01/27 05:57:34;;;;;;;34.43;18.33;;;;;;;;;;5013496;28;20208;-60
2022/01/27 05:59:59;;;;;;;32.83;18.03;;;;;;;;;;5008961;28;20569;-60
2022/01/27 06:02:25;;;;;;;32.57;18.33;;;;;;;;;;4993862;28;20221;-60
2022/01/27 06:04:50;;;;;;;32.87;18.23;;;;;;;;;;4993437;28;20583;-60
2022/01/27 06:07:15;;;;;;;34.67;18.53;;;;;;;;;;4993681;28;20700;-60
2022/01/27 06:09:40;;;;;;;34.10;19.27;;;;;;;;;;4994221;28;20296;-60
2022/01/27 06:12:06;;;;;;;31.93;18.13;;;;;;;;;;4993171;28;20217;-60
2022/01/27 06:14:31;;;;;;;33.60;18.60;;;;;;;;;;4993930;28;20220;-60
2022/01/27 06:16:56;;;;;;;36.50;18.37;;;;;;;;;;4986720;28;20265;-60
2022/01/27 06:19:26;;;;;;;32.20;18.63;;;;;;;;;;4973971;28;20243;-60
2022/01/27 06:21:51;;;;;;;32.40;18.13;;;;;;;;;;4974658;28;20224;-60
2022/01/27 06:24:16;;;;;;;32.93;18.43;;;;;;;;;;5008338;28;20707;-60
2022/01/27 06:26:41;;;;;;;33.57;18.20;;;;;;;;;;5013438;28;20220;-60
2022/01/27 06:29:07;;;;;;;32.70;17.27;;;;;;;;;;4995334;28;20212;-60
2022/01/27 06:31:32;;;;;;;31.47;16.97;;;;;;;;;;5012439;28;20220;-60
2022/01/27 06:33:57;;;;;;;32.83;17.93;;;;;;;;;;5013389;28;20223;-60
2022/01/27 06:36:22;;;;;;;31.57;17.67;;;;;;;;;;5012787;28;20215;-60
2022/01/27 06:38:48;;;;;;;33.23;17.63;;;;;;;;;;4994768;28;20668;-60
2022/01/27 06:41:13;;;;;;;36.63;19.73;;;;;;;;;;5012562;28;20216;-60
2022/01/27 06:43:38;;;;;;;32.57;18.13;;;;;;;;;;5013090;28;20232;-60
2022/01/27 06:46:04;;;;;;;29.63;17.33;;;;;;;;;;4994361;28;20307;-60
2022/01/27 06:48:29;;;;;;;32.20;16.67;;;;;;;;;;5013180;28;20290;-60
2022/01/27 06:50:55;;;;;;;33.67;15.80;;;;;;;;;;5012816;28;20222;-60
2022/01/27 06:53:21;;;;;;;28.10;16.77;;;;;;;;;;5011612;28;20223;-60
2022/01/27 06:55:46;;;;;;;28.33;15.93;;;;;;;;;;4995286;28;20221;-60
2022/01/27 06:58:12;;;;;;;31.70;15.50;;;;;;;;;;4995009;28;20295;-60
2022/01/27 07:00:37;;;;;;;29.90;15.43;;;;;;;;;;5002082;28;20217;-60
2022/01/27 07:03:02;;;;;;;28.93;15.10;;;;;;;;;;4992963;28;20296;-60
2022/01/27 07:05:31;;;;;;;29.50;15.17;;;;;;;;;;4993068;28;20216;-60
2022/01/27 07:07:56;;;;;;;29.27;14.67;;;;;;;;;;4992259;28;20213;-60
2022/01/27 07:10:21;;;;;;;29.43;15.03;;;;;;;;;;4992628;28;20303;-60
2022/01/27 07:12:46;;;;;;;25.60;14.77;;;;;;;;;;4993145;28;20664;-59
2022/01/27 07:15:12;;;;;;;29.37;16.47;;;;;;;;;;4991772;28;20220;-60
2022/01/27 07:17:37;;;;;;;33.07;16.00;;;;;;;;;;4980658;28;20210;-61
2022/01/27 07:20:02;;;;;;;33.90;19.17;;;;;;;;;;4972471;28;20445;-61
2022/01/27 07:22:28;;;;;;;28.93;15.80;;;;;;;;;;4945609;28;20215;-60
2022/01/27 07:24:53;;;;;;;28.70;15.30;;;;;;;;;;4994597;28;20645;-60
2022/01/27 07:27:19;;;;;;;27.80;14.87;;;;;;;;;;4993717;28;20300;-59
2022/01/27 07:29:45;;;;;;;32.43;15.73;;;;;;;;;;5012692;28;20220;-59
2022/01/27 07:32:10;;;;;;;32.80;15.57;;;;;;;;;;5011894;28;20583;-59
2022/01/27 07:34:35;;;;;;;30.13;15.87;;;;;;;;;;5012154;28;20590;-60
2022/01/27 07:37:03;;;;;;;29.27;15.63;;;;;;;;;;5012024;28;20232;-60
2022/01/27 07:39:28;;;;;;;30.17;15.87;;;;;;;;;;5012214;28;20675;-59
2022/01/27 07:41:56;;;;;;;26.67;15.57;;;;;;;;;;5011574;28;20216;-61
2022/01/27 07:44:21;;;;;;;30.40;16.60;;;;;;;;;;5011803;28;20224;-60
2022/01/27 07:46:47;;;;;;;34.00;15.83;;;;;;;;;;5012318;28;20585;-60
2022/01/27 07:49:12;;;;;;;31.37;15.60;;;;;;;;;;5011328;28;20212;-59
2022/01/27 07:51:37;;;;;;;29.27;15.23;;;;;;;;;;5012257;28;20215;-60
2022/01/27 07:54:03;;;;;;;29.90;15.97;;;;;;;;;;5011874;28;20235;-60
2022/01/27 07:56:28;;;;;;;31.13;17.70;;;;;;;;;;4993842;28;20266;-60
2022/01/27 07:58:53;;;;;;;82.93;39.90;;;;;;;;;;5012010;28;20205;-60
2022/01/27 08:01:18;;;;;;;26.33;14.50;;;;;;;;;;4995974;28;20217;-60
2022/01/27 08:03:44;;;;;;;27.03;14.87;;;;;;;;;;4976413;28;20264;-60
2022/01/27 08:06:09;;;;;;;26.27;14.87;;;;;;;;;;4995831;28;20296;-60
2022/01/27 08:08:34;;;;;;;26.23;14.87;;;;;;;;;;4996200;28;20581;-60
2022/01/27 08:10:59;;;;;;;30.73;17.77;;;;;;;;;;4976917;28;20430;-60
2022/01/27 08:13:25;;;;;;;26.20;15.17;;;;;;;;;;4978281;28;20822;-61
2022/01/27 08:15:50;;;;;;;23.93;14.20;;;;;;;;;;4996128;28;20209;-60
2022/01/27 08:18:15;;;;;;;27.57;14.37;;;;;;;;;;4977296;28;20209;-61
2022/01/27 08:20:41;;;;;;;26.70;14.40;;;;;;;;;;4979154;28;20247;-61
2022/01/27 08:23:06;;;;;;;25.63;13.93;;;;;;;;;;4986829;28;20233;-60
2022/01/27 08:25:32;;;;;;;24.60;13.30;;;;;;;;;;4989572;28;20222;-59
2022/01/27 08:28:00;;;;;;;24.43;14.67;;;;;;;;;;4979136;28;20642;-60
2022/01/27 08:30:28;;;;;;;22.63;12.57;;;;;;;;;;4975882;28;20575;-59
2022/01/27 08:33:05;;;;;;;26.30;13.50;;;;;;;;;;4975584;28;20225;-59
2022/01/27 08:35:30;;;;;;;25.13;14.17;;;;;;;;;;4976140;28;20241;-59
2022/01/27 08:37:56;;;;;;;26.27;14.90;;;;;;;;;;4975382;28;20600;-59
2022/01/27 08:40:21;;;;;;;23.97;13.83;;;;;;;;;;4975730;28;20616;-62
2022/01/27 08:42:46;;;;;;;22.03;13.07;;;;;;;;;;4958821;28;20284;-62
2022/01/27 08:45:12;;;;;;;23.60;13.40;;;;;;;;;;4974817;28;20288;-62
2022/01/27 08:47:38;;;;;;;24.47;14.97;;;;;;;;;;4976365;28;20217;-59
2022/01/27 08:50:03;;;;;;;23.00;13.63;;;;;;;;;;4975572;28;20620;-59
2022/01/27 08:52:29;;;;;;;26.43;14.80;;;;;;;;;;4975327;28;20205;-59
2022/01/27 08:54:54;;;;;;;21.90;13.30;;;;;;;;;;4975852;28;20225;-59
2022/01/27 08:57:19;;;;;;;21.53;13.27;;;;;;;;;;4975340;28;20214;-59
2022/01/27 08:59:46;;;;;;;24.20;14.67;;;;;;;;;;4977617;28;20625;-59
2022/01/27 09:02:11;;;;;;;25.00;15.23;;;;;;;;;;4995003;28;20210;-59
2022/01/27 09:04:36;;;;;;;26.20;14.03;;;;;;;;;;4995241;28;20233;-59
2022/01/27 09:07:02;;;;;;;24.10;14.37;;;;;;;;;;4994155;28;20217;-59
2022/01/27 09:09:27;;;;;;;22.37;13.50;;;;;;;;;;4994878;28;20267;-59
2022/01/27 09:11:53;;;;;;;22.70;13.07;;;;;;;;;;4994870;28;20236;-57
2022/01/27 09:14:18;;;;;;;21.67;13.97;;;;;;;;;;4992684;28;20217;-58
2022/01/27 09:16:43;;;;;;;23.37;14.03;;;;;;;;;;4990179;28;20235;-58
2022/01/27 09:19:09;;;;;;;22.50;13.70;;;;;;;;;;4975085;28;20221;-61
2022/01/27 09:21:44;;;;;;;21.03;12.13;;;;;;;;;;4957686;28;20217;-59
2022/01/27 09:24:16;;;;;;;19.63;12.17;;;;;;;;;;5008356;28;20231;-60
2022/01/27 09:26:52;;;;;;;18.50;11.60;;;;;;;;;;4997973;28;20292;-59
2022/01/27 09:29:18;;;;;;;21.20;12.50;;;;;;;;;;5013785;28;20227;-59
2022/01/27 09:31:43;;;;;;;22.27;15.10;;;;;;;;;;5013351;28;20938;-59
2022/01/27 09:34:09;;;;;;;21.53;13.97;;;;;;;;;;5013013;28;20216;-59
2022/01/27 09:36:34;;;;;;;22.70;12.77;;;;;;;;;;5014400;28;20676;-58
2022/01/27 09:38:59;;;;;;;18.97;12.23;;;;;;;;;;4986797;28;20237;-58
2022/01/27 09:41:24;;;;;;;20.67;12.70;;;;;;;;;;4977143;28;20234;-58
2022/01/27 09:43:53;;;;;;;18.40;11.70;;;;;;;;;;4975120;28;20233;-58
2022/01/27 09:46:19;;;;;;;18.10;12.07;;;;;;;;;;4974680;28;20217;-59
2022/01/27 09:48:47;;;;;;;21.90;11.27;;;;;;;;;;4974627;28;20225;-58
2022/01/27 09:53:44;;;;;;;20.67;11.77;;;;;;;;;;4993929;28;20205;-58
2022/01/27 09:56:09;;;;;;;17.47;11.60;;;;;;;;;;4975819;28;20215;-58
2022/01/27 09:58:35;;;;;;;18.93;11.27;;;;;;;;;;4994050;28;20205;-58
2022/01/27 10:01:00;;;;;;;21.23;13.07;;;;;;;;;;4994054;28;20263;-58
2022/01/27 10:03:28;;;;;;;22.37;12.60;;;;;;;;;;4993035;28;20300;-57
2022/01/27 10:05:53;;;;;;;24.17;13.03;;;;;;;;;;4994065;28;20213;-58
2022/01/27 10:08:20;;;;;;;18.10;10.90;;;;;;;;;;4975942;28;20270;-58
2022/01/27 10:10:46;;;;;;;19.53;11.87;;;;;;;;;;4992843;28;20696;-58
2022/01/27 10:13:12;;;;;;;19.17;11.57;;;;;;;;;;4993384;28;20213;-58
2022/01/27 10:15:38;;;;;;;17.37;10.20;;;;;;;;;;4976787;28;20220;-59
2022/01/27 10:18:04;;;;;;;16.83;11.00;;;;;;;;;;4959722;28;20255;-58
2022/01/27 10:20:29;;;;;;;18.73;10.63;;;;;;;;;;4974179;28;20217;-58
2022/01/27 10:23:08;;;;;;;14.70;10.30;;;;;;;;;;4987658;28;20240;-58
2022/01/27 10:25:33;;;;;;;21.60;11.53;;;;;;;;;;5001760;28;20225;-58
2022/01/27 10:28:09;;;;;;;17.50;11.30;;;;;;;;;;4993667;28;20613;-58
2022/01/27 10:33:00;;;;;;;21.63;11.70;;;;;;;;;;4993705;28;20209;-59
2022/01/27 10:35:26;;;;;;;15.70;10.47;;;;;;;;;;4993101;28;20287;-59
2022/01/27 10:37:55;;;;;;;18.60;11.30;;;;;;;;;;4993106;28;20300;-59
2022/01/27 10:40:22;;;;;;;16.40;9.70;;;;;;;;;;4975372;28;20766;-59
2022/01/27 10:42:57;;;;;;;17.70;10.23;;;;;;;;;;4993575;28;20715;-59
2022/01/27 10:45:22;;;;;;;17.00;9.70;;;;;;;;;;4992178;28;20220;-59
2022/01/27 10:47:48;;;;;;;28.73;15.90;;;;;;;;;;4993361;28;20213;-59
2022/01/27 10:50:14;;;;;;;17.63;10.23;;;;;;;;;;4993038;28;20225;-59
2022/01/27 10:52:45;;;;;;;11.50;7.97;;;;;;;;;;4992546;28;20304;-59
2022/01/27 10:55:12;;;;;;;14.17;8.80;;;;;;;;;;4975894;28;20205;-59
2022/01/27 10:57:37;;;;;;;14.40;9.03;;;;;;;;;;4993411;28;20224;-59
2022/01/27 11:00:06;;;;;;;12.90;8.80;;;;;;;;;;4991749;28;20213;-59
2022/01/27 11:02:32;;;;;;;14.55;7.82;;;;;;;;;;4993237;28;20256;-59
2022/01/27 11:04:57;;;;;;;14.43;8.30;;;;;;;;;;4992559;28;20632;-59
2022/01/27 11:07:24;;;;;;;20.30;9.93;;;;;;;;;;4992021;28;20247;-59
2022/01/27 11:09:50;;;;;;;12.63;9.17;;;;;;;;;;4993000;28;20263;-59
2022/01/27 11:12:18;;;;;;;16.90;11.47;;;;;;;;;;4992844;28;20684;-59
2022/01/27 11:14:45;;;;;;;14.87;10.20;;;;;;;;;;4992893;28;20219;-59
2022/01/27 11:17:15;;;;;;;14.17;8.33;;;;;;;;;;4984010;28;20218;-59
2022/01/27 11:22:28;;;;;;;12.20;8.87;;;;;;;;;;4973677;28;20209;-59
2022/01/27 11:27:27;;;;;;;15.57;9.37;;;;;;;;;;4975195;28;20304;-59
2022/01/27 11:29:57;;;;;;;15.87;9.67;;;;;;;;;;4992903;28;20300;-59
2022/01/27 11:32:43;;;;;;;14.13;9.93;;;;;;;;;;4975276;28;20209;-59
2022/01/27 11:35:18;;;;;;;14.63;10.20;;;;;;;;;;4991646;28;20251;-59
2022/01/27 11:37:45;;;;;;;14.23;10.17;;;;;;;;;;4993213;28;20569;-59
2022/01/27 11:40:11;;;;;;;15.90;10.73;;;;;;;;;;4978885;28;20216;-59
2022/01/27 11:42:37;;;;;;;16.57;10.30;;;;;;;;;;4996399;28;20281;-59
2022/01/27 11:45:21;;;;;;;17.00;10.47;;;;;;;;;;4996310;28;20236;-59
2022/01/27 11:47:47;;;;;;;17.55;10.10;;;;;;;;;;4996158;28;20220;-58
2022/01/27 11:50:23;;;;;;;16.30;11.00;;;;;;;;;;4979078;28;20216;-59
2022/01/27 11:52:51;;;;;;;17.47;10.47;;;;;;;;;;4980541;28;20220;-59
2022/01/27 11:55:23;;;;;;;17.73;10.97;;;;;;;;;;4995433;28;20209;-59
2022/01/27 11:57:49;;;;;;;19.40;11.93;;;;;;;;;;4996555;28;20255;-58
2022/01/27 12:00:16;;;;;;;23.93;11.30;;;;;;;;;;4995961;28;20201;-59
2022/01/27 12:02:57;;;;;;;20.17;11.38;;;;;;;;;;5006856;28;20690;-58
2022/01/27 12:05:22;;;;;;;18.88;10.98;;;;;;;;;;5011580;28;20235;-58
2022/01/27 12:08:06;;;;;;;18.57;11.50;;;;;;;;;;5015638;28;20220;-58
2022/01/27 12:10:41;;;;;;;23.07;12.17;;;;;;;;;;5003619;28;20351;-58
2022/01/27 12:16:11;;;;;;;20.20;12.20;;;;;;;;;;4995359;28;20217;-58
2022/01/27 12:18:36;;;;;;;23.20;12.20;;;;;;;;;;4976446;28;20217;-59
2022/01/27 12:21:20;;;;;;;22.73;11.87;;;;;;;;;;4976264;28;20222;-58
2022/01/27 12:26:54;;;;;;;18.93;10.97;;;;;;;;;;5015318;28;20298;-58
2022/01/27 12:29:22;;;;;;;24.33;11.02;;;;;;;;;;4976095;28;20213;-58
2022/01/27 12:31:47;;;;;;;17.77;11.10;;;;;;;;;;4958399;28;20221;-58
2022/01/27 12:34:12;;;;;;;16.48;10.90;;;;;;;;;;4958767;28;20221;-58
2022/01/27 12:36:37;;;;;;;18.30;10.33;;;;;;;;;;4976368;28;20224;-58
2022/01/27 12:39:03;;;;;;;18.90;11.30;;;;;;;;;;4977200;28;20279;-59
2022/01/27 12:41:34;;;;;;;21.27;12.10;;;;;;;;;;4995540;28;20208;-58
2022/01/27 12:44:08;;;;;;;20.07;10.93;;;;;;;;;;4995008;28;20257;-58
2022/01/27 12:46:33;;;;;;;22.20;11.33;;;;;;;;;;4994439;28;20220;-58
2022/01/27 12:49:01;;;;;;;20.83;10.53;;;;;;;;;;4977815;28;20205;-58
2022/01/27 12:51:26;;;;;;;22.50;11.00;;;;;;;;;;4994473;28;20205;-58
2022/01/27 12:53:59;;;;;;;20.40;11.37;;;;;;;;;;4995335;28;20617;-58
2022/01/27 12:56:24;;;;;;;20.83;10.50;;;;;;;;;;4995024;28;20641;-57
2022/01/27 12:58:50;;;;;;;18.07;10.20;;;;;;;;;;4994490;28;20236;-58
2022/01/27 13:01:16;;;;;;;20.67;10.90;;;;;;;;;;4979618;28;20522;-58
2022/01/27 13:03:58;;;;;;;22.17;10.17;;;;;;;;;;4975621;28;20685;-58
2022/01/27 13:06:27;;;;;;;23.08;10.88;;;;;;;;;;4957327;28;20205;-58
2022/01/27 13:09:08;;;;;;;23.67;9.53;;;;;;;;;;4975267;28;20224;-59
2022/01/27 13:11:34;;;;;;;16.85;9.07;;;;;;;;;;4975627;28;20218;-58
2022/01/27 13:14:06;;;;;;;19.57;10.97;;;;;;;;;;4975187;28;20216;-58
2022/01/27 13:16:39;;;;;;;16.33;8.93;;;;;;;;;;4984128;28;20237;-58
2022/01/27 13:19:10;;;;;;;20.33;9.20;;;;;;;;;;4957463;28;20642;-59
2022/01/27 13:21:37;;;;;;;17.98;9.60;;;;;;;;;;4975946;28;20210;-59
2022/01/27 13:24:05;;;;;;;24.58;10.93;;;;;;;;;;5006338;28;20229;-59
2022/01/27 13:26:30;;;;;;;19.05;8.95;;;;;;;;;;5014074;28;20212;-58
2022/01/27 13:28:56;;;;;;;18.60;8.43;;;;;;;;;;5014418;28;20278;-60
2022/01/27 13:31:21;;;;;;;15.90;6.60;;;;;;;;;;4992665;28;20217;-60
2022/01/27 13:33:46;;;;;;;18.40;7.22;;;;;;;;;;4957191;28;20214;-59
2022/01/27 13:36:21;;;;;;;17.55;7.15;;;;;;;;;;5008937;28;20296;-59
2022/01/27 13:39:02;;;;;;;20.27;7.10;;;;;;;;;;5014089;28;20667;-59
2022/01/27 13:41:29;;;;;;;15.52;6.78;;;;;;;;;;5013493;28;20287;-59
2022/01/27 13:43:55;;;;;;;15.05;5.80;;;;;;;;;;5011329;28;20780;-59
2022/01/27 13:46:32;;;;;;;16.80;5.88;;;;;;;;;;4994267;28;20292;-58
2022/01/27 13:49:03;;;;;;;17.05;6.22;;;;;;;;;;4976477;28;20755;-59
2022/01/27 13:51:28;;;;;;;13.25;5.82;;;;;;;;;;4994241;28;20217;-59
2022/01/27 13:53:58;;;;;;;15.38;5.53;;;;;;;;;;4994155;28;20556;-59
2022/01/27 13:56:24;;;;;;;16.70;4.88;;;;;;;;;;4975726;28;20205;-59
2022/01/27 13:59:09;;;;;;;14.35;5.80;;;;;;;;;;4994283;28;20248;-59
2022/01/27 14:01:35;;;;;;;16.20;5.38;;;;;;;;;;4974664;28;20213;-59
2022/01/27 14:04:00;;;;;;;13.93;4.40;;;;;;;;;;4990102;28;20232;-59
2022/01/27 14:06:25;;;;;;;13.60;4.15;;;;;;;;;;5013321;28;20216;-59
2022/01/27 14:08:56;;;;;;;16.50;5.57;;;;;;;;;;5012589;28;20232;-60
2022/01/27 14:11:32;;;;;;;17.02;4.25;;;;;;;;;;5013300;28;20670;-59
2022/01/27 14:13:58;;;;;;;17.05;4.22;;;;;;;;;;5013779;28;20216;-60
2022/01/27 14:16:25;;;;;;;15.18;4.68;;;;;;;;;;5008856;28;20219;-60
2022/01/27 14:18:51;;;;;;;15.95;4.25;;;;;;;;;;4993691;28;20217;-61
2022/01/27 14:21:20;;;;;;;12.52;4.75;;;;;;;;;;4993298;28;20217;-60
2022/01/27 14:23:56;;;;;;;13.55;3.92;;;;;;;;;;4992101;28;20505;-59
2022/01/27 14:26:29;;;;;;;13.37;3.90;;;;;;;;;;4992215;28;20209;-60
2022/01/27 14:28:54;;;;;;;12.35;4.55;;;;;;;;;;4993979;28;20244;-60
2022/01/27 14:31:20;;;;;;;15.40;3.92;;;;;;;;;;4992261;28;20244;-60
2022/01/27 14:33:45;;;;;;;15.35;3.63;;;;;;;;;;4993284;28;20240;-60
2022/01/27 14:36:11;;;;;;;11.82;4.45;;;;;;;;;;4984420;28;20210;-60
2022/01/27 14:38:36;;;;;;;16.88;6.22;;;;;;;;;;4992421;28;20209;-60
2022/01/27 14:41:01;;;;;;;14.18;5.90;;;;;;;;;;4975604;28;20223;-60
2022/01/27 14:43:29;;;;;;;15.73;5.97;;;;;;;;;;4992615;28;20244;-60
2022/01/27 14:45:54;;;;;;;18.50;6.57;;;;;;;;;;4993470;28;20220;-60
2022/01/27 14:48:20;;;;;;;17.63;5.20;;;;;;;;;;4992902;28;20225;-60
2022/01/27 14:50:45;;;;;;;32.00;12.80;;;;;;;;;;4992374;28;20685;-60
2022/01/27 14:53:11;;;;;;;20.23;5.45;;;;;;;;;;4991408;28;20228;-60
2022/01/27 14:55:36;;;;;;;34.25;11.40;;;;;;;;;;4992890;28;20216;-59
2022/01/27 14:58:01;;;;;;;22.98;8.05;;;;;;;;;;4992265;28;20220;-60
2022/01/27 15:00:26;;;;;;;19.58;6.25;;;;;;;;;;4984573;28;20213;-60
2022/01/27 15:02:52;;;;;;;21.63;7.28;;;;;;;;;;4974123;28;20635;-60